createdAt,value
2018-12-30T00:00:04.078Z,2.80
2018-12-30T00:02:32.951Z,2.90
2018-12-30T00:05:02.276Z,2.90
2018-12-30T00:07:31.558Z,2.90
2018-12-30T00:10:00.438Z,3.00
2018-12-30T00:12:29.422Z,3.00
2018-12-30T00:14:58.393Z,3.00
2018-12-30T00:17:27.375Z,3.10
2018-12-30T00:19:56.486Z,3.00
2018-12-30T00:22:25.490Z,3.10
2018-12-30T00:24:54.439Z,3.10
2018-12-30T00:27:23.349Z,3.10
2018-12-30T00:29:52.405Z,3.10
2018-12-30T00:32:21.318Z,3.10
2018-12-30T00:34:50.230Z,3.20
2018-12-30T00:37:19.148Z,3.20
2018-12-30T00:39:48.035Z,3.20
2018-12-30T00:42:16.992Z,3.10
2018-12-30T00:44:45.897Z,3.20
2018-12-30T00:47:15.001Z,3.20
2018-12-30T00:49:44.006Z,3.20
2018-12-30T00:52:12.923Z,3.10
2018-12-30T00:54:41.889Z,3.20
2018-12-30T00:57:10.787Z,3.10
2018-12-30T00:59:40.158Z,3.10
2018-12-30T01:02:09.202Z,3.20
2018-12-30T01:04:38.062Z,3.40
2018-12-30T01:07:07.721Z,3.40
2018-12-30T01:09:36.598Z,3.40
2018-12-30T01:12:05.511Z,3.40
2018-12-30T01:14:34.623Z,3.50
2018-12-30T01:17:03.542Z,3.40
2018-12-30T01:19:32.489Z,3.40
2018-12-30T01:22:01.398Z,3.30
2018-12-30T01:24:30.254Z,3.30
2018-12-30T01:26:59.499Z,3.30
2018-12-30T01:29:29.303Z,3.30
2018-12-30T01:31:58.264Z,3.30
2018-12-30T01:34:27.150Z,3.30
2018-12-30T01:36:56.040Z,3.20
2018-12-30T01:39:24.978Z,3.20
2018-12-30T01:41:53.861Z,3.20
2018-12-30T01:44:22.797Z,3.20
2018-12-30T01:46:51.689Z,3.30
2018-12-30T01:49:20.574Z,3.30
2018-12-30T01:51:49.514Z,3.20
2018-12-30T01:54:18.409Z,3.30
2018-12-30T01:56:47.353Z,3.20
2018-12-30T01:59:16.259Z,3.30
2018-12-30T02:01:45.164Z,3.30
2018-12-30T02:04:14.106Z,3.30
2018-12-30T02:06:43.275Z,3.30
2018-12-30T02:09:12.236Z,3.40
2018-12-30T02:11:41.137Z,3.30
2018-12-30T02:14:10.034Z,3.30
2018-12-30T02:16:39.455Z,3.30
2018-12-30T02:19:08.729Z,3.30
2018-12-30T02:21:41.260Z,3.30
2018-12-30T02:24:08.206Z,3.40
2018-12-30T02:26:37.079Z,3.30
2018-12-30T02:29:06.028Z,3.30
2018-12-30T02:31:35.131Z,3.30
2018-12-30T02:34:04.057Z,3.30
2018-12-30T02:36:32.938Z,3.30
2018-12-30T02:39:04.030Z,3.30
2018-12-30T02:41:32.935Z,3.20
2018-12-30T02:44:01.885Z,3.20
2018-12-30T02:46:30.810Z,3.20
2018-12-30T02:48:59.672Z,3.20
2018-12-30T02:51:28.537Z,3.20
2018-12-30T02:53:57.479Z,3.20
2018-12-30T02:56:26.800Z,3.20
2018-12-30T02:58:55.704Z,3.20
2018-12-30T03:01:24.579Z,3.20
2018-12-30T03:03:53.482Z,3.30
2018-12-30T03:06:22.408Z,3.30
2018-12-30T03:08:51.297Z,3.30
2018-12-30T03:11:20.210Z,3.30
2018-12-30T03:13:49.095Z,3.30
2018-12-30T03:16:18.026Z,3.30
2018-12-30T03:18:47.918Z,3.30
2018-12-30T03:21:16.786Z,3.30
2018-12-30T03:23:45.721Z,3.30
2018-12-30T03:26:14.596Z,3.30
2018-12-30T03:28:43.476Z,3.30
2018-12-30T03:31:12.403Z,3.30
2018-12-30T03:33:41.281Z,3.30
2018-12-30T03:36:10.215Z,3.30
2018-12-30T03:38:39.110Z,3.20
2018-12-30T03:41:08.346Z,3.20
2018-12-30T03:43:37.298Z,3.20
2018-12-30T03:46:06.165Z,3.20
2018-12-30T03:48:35.099Z,3.20
2018-12-30T03:51:03.972Z,3.20
2018-12-30T03:53:32.869Z,3.30
2018-12-30T03:56:01.761Z,3.30
2018-12-30T03:58:30.651Z,3.30
2018-12-30T04:00:59.625Z,3.30
2018-12-30T04:03:28.503Z,3.30
2018-12-30T04:05:57.400Z,3.30
2018-12-30T04:08:26.353Z,3.30
2018-12-30T04:10:55.232Z,3.30
2018-12-30T04:13:24.160Z,3.30
2018-12-30T04:15:53.037Z,3.30
2018-12-30T04:18:21.893Z,3.40
2018-12-30T04:20:50.805Z,3.40
2018-12-30T04:23:19.707Z,3.40
2018-12-30T04:25:48.630Z,3.40
2018-12-30T04:28:17.503Z,3.40
2018-12-30T04:30:46.369Z,3.50
2018-12-30T04:33:15.672Z,3.60
2018-12-30T04:35:46.013Z,3.60
2018-12-30T04:38:14.957Z,3.70
2018-12-30T04:40:43.821Z,3.70
2018-12-30T04:43:12.750Z,3.80
2018-12-30T04:45:41.647Z,3.80
2018-12-30T04:48:10.529Z,3.90
2018-12-30T04:50:40.055Z,3.90
2018-12-30T04:53:09.071Z,3.90
2018-12-30T04:55:37.985Z,4.00
2018-12-30T04:58:06.961Z,4.00
2018-12-30T05:00:35.827Z,4.10
2018-12-30T05:03:04.763Z,4.10
2018-12-30T05:05:33.665Z,4.10
2018-12-30T05:08:02.559Z,4.20
2018-12-30T05:10:31.477Z,4.30
2018-12-30T05:13:00.358Z,4.20
2018-12-30T05:15:29.282Z,4.30
2018-12-30T05:17:58.171Z,4.30
2018-12-30T05:20:27.045Z,4.30
2018-12-30T05:22:55.985Z,4.40
2018-12-30T05:25:24.847Z,4.40
2018-12-30T05:27:53.798Z,4.40
2018-12-30T05:30:22.719Z,4.40
2018-12-30T05:32:51.680Z,4.40
2018-12-30T05:35:20.609Z,4.40
2018-12-30T05:37:49.471Z,4.40
2018-12-30T05:40:18.414Z,4.50
2018-12-30T05:42:47.311Z,4.50
2018-12-30T05:45:16.208Z,4.50
2018-12-30T05:47:45.607Z,4.50
2018-12-30T05:50:14.485Z,4.50
2018-12-30T05:52:43.437Z,4.60
2018-12-30T05:55:12.306Z,4.50
2018-12-30T05:57:41.182Z,4.50
2018-12-30T06:00:11.089Z,4.50
2018-12-30T06:02:39.965Z,4.60
2018-12-30T06:05:08.994Z,4.50
2018-12-30T06:07:37.870Z,4.50
2018-12-30T06:10:06.762Z,4.50
2018-12-30T06:12:35.673Z,4.50
2018-12-30T06:15:05.778Z,4.50
2018-12-30T06:17:34.657Z,4.50
2018-12-30T06:20:03.802Z,4.50
2018-12-30T06:22:32.692Z,4.50
2018-12-30T06:25:01.652Z,4.50
2018-12-30T06:27:30.590Z,4.60
2018-12-30T06:29:59.460Z,4.50
2018-12-30T06:32:29.965Z,4.60
2018-12-30T06:34:58.830Z,4.50
2018-12-30T06:37:27.750Z,4.50
2018-12-30T06:39:56.618Z,4.50
2018-12-30T06:42:25.497Z,4.60
2018-12-30T06:44:54.429Z,4.70
2018-12-30T06:47:23.315Z,4.70
2018-12-30T06:49:52.232Z,4.80
2018-12-30T06:52:21.202Z,4.70
2018-12-30T06:54:50.096Z,4.70
2018-12-30T06:57:19.018Z,4.80
2018-12-30T06:59:47.902Z,4.80
2018-12-30T07:02:17.165Z,4.80
2018-12-30T07:04:46.032Z,4.90
2018-12-30T07:07:14.904Z,4.80
2018-12-30T07:09:43.825Z,4.80
2018-12-30T07:12:12.728Z,4.80
2018-12-30T07:14:41.649Z,4.80
2018-12-30T07:17:10.537Z,4.80
2018-12-30T07:19:39.418Z,4.90
2018-12-30T07:22:08.533Z,4.80
2018-12-30T07:24:37.431Z,4.70
2018-12-30T07:27:06.351Z,4.70
2018-12-30T07:29:35.227Z,4.70
2018-12-30T07:32:04.206Z,4.80
2018-12-30T07:34:33.141Z,4.90
2018-12-30T07:37:02.034Z,4.80
2018-12-30T07:39:32.130Z,4.90
2018-12-30T07:42:02.334Z,4.90
2018-12-30T07:44:31.249Z,4.90
2018-12-30T07:47:00.146Z,5.00
2018-12-30T07:49:29.460Z,5.00
2018-12-30T07:51:58.395Z,4.90
2018-12-30T07:54:27.274Z,4.90
2018-12-30T07:56:56.148Z,5.00
2018-12-30T07:59:25.098Z,4.90
2018-12-30T08:01:53.987Z,5.00
2018-12-30T08:04:22.948Z,4.90
2018-12-30T08:06:51.835Z,5.00
2018-12-30T08:09:20.722Z,5.00
2018-12-30T08:11:49.673Z,5.10
2018-12-30T08:14:18.573Z,5.00
2018-12-30T08:16:47.535Z,5.10
2018-12-30T08:19:16.407Z,5.10
2018-12-30T08:21:45.301Z,5.20
2018-12-30T08:24:14.228Z,5.10
2018-12-30T08:26:43.106Z,5.10
2018-12-30T08:29:12.072Z,5.10
2018-12-30T08:31:40.906Z,5.10
2018-12-30T08:34:09.801Z,5.10
2018-12-30T08:36:38.725Z,5.10
2018-12-30T08:39:07.895Z,5.10
2018-12-30T08:41:36.837Z,5.10
2018-12-30T08:44:05.878Z,5.20
2018-12-30T08:46:34.783Z,5.20
2018-12-30T08:49:03.710Z,5.20
2018-12-30T08:51:32.603Z,5.20
2018-12-30T08:54:01.517Z,5.20
2018-12-30T08:56:30.440Z,5.20
2018-12-30T08:58:59.398Z,5.20
2018-12-30T09:01:28.713Z,5.20
2018-12-30T09:03:57.729Z,5.20
2018-12-30T09:06:26.634Z,5.20
2018-12-30T09:08:55.585Z,5.20
2018-12-30T09:11:24.615Z,5.30
2018-12-30T09:13:53.504Z,5.30
2018-12-30T09:16:22.376Z,5.40
2018-12-30T09:18:51.293Z,5.40
2018-12-30T09:21:20.174Z,5.40
2018-12-30T09:23:49.064Z,5.40
2018-12-30T09:26:17.981Z,5.50
2018-12-30T09:28:46.882Z,5.50
2018-12-30T09:31:15.730Z,5.50
2018-12-30T09:33:46.223Z,5.60
2018-12-30T09:36:15.104Z,5.60
2018-12-30T09:38:43.979Z,5.60
2018-12-30T09:41:12.893Z,5.70
2018-12-30T09:43:41.770Z,5.70
2018-12-30T09:46:10.727Z,5.80
2018-12-30T09:48:39.631Z,5.80
2018-12-30T09:51:08.528Z,5.80
2018-12-30T09:53:44.948Z,5.90
2018-12-30T09:56:08.006Z,5.90
2018-12-30T09:58:36.964Z,6.00
2018-12-30T10:01:05.977Z,5.90
2018-12-30T10:03:34.904Z,6.00
2018-12-30T10:06:03.823Z,6.00
2018-12-30T10:08:32.713Z,6.00
2018-12-30T10:11:01.627Z,5.90
2018-12-30T10:13:30.496Z,6.00
2018-12-30T10:15:59.381Z,6.00
2018-12-30T10:18:28.313Z,6.00
2018-12-30T10:20:57.302Z,6.00
2018-12-30T10:23:26.474Z,6.00
2018-12-30T10:25:55.388Z,6.00
2018-12-30T10:28:24.278Z,6.10
2018-12-30T10:30:53.223Z,6.10
2018-12-30T10:33:22.124Z,6.10
2018-12-30T10:35:51.462Z,6.20
2018-12-30T10:38:20.366Z,6.20
2018-12-30T10:40:49.414Z,6.20
2018-12-30T10:43:18.353Z,6.20
2018-12-30T10:45:47.251Z,6.20
2018-12-30T10:48:16.542Z,6.20
2018-12-30T10:50:45.566Z,6.20
2018-12-30T10:53:14.487Z,6.20
2018-12-30T10:55:43.448Z,6.20
2018-12-30T10:58:12.358Z,6.20
2018-12-30T11:00:41.252Z,6.30
2018-12-30T11:03:10.208Z,6.30
2018-12-30T11:05:39.169Z,6.20
2018-12-30T11:08:08.127Z,6.30
2018-12-30T11:10:37.120Z,6.30
2018-12-30T11:13:06.087Z,6.30
2018-12-30T11:15:35.026Z,6.40
2018-12-30T11:18:03.922Z,6.60
2018-12-30T11:20:32.869Z,6.80
2018-12-30T11:23:01.764Z,6.70
2018-12-30T11:25:30.677Z,6.60
2018-12-30T11:27:59.701Z,6.60
2018-12-30T11:30:28.575Z,6.70
2018-12-30T11:32:57.520Z,6.70
2018-12-30T11:35:26.399Z,6.70
2018-12-30T11:37:56.043Z,6.70
2018-12-30T11:40:24.965Z,6.60
2018-12-30T11:42:54.035Z,6.70
2018-12-30T11:45:23.055Z,6.70
2018-12-30T11:47:51.965Z,6.60
2018-12-30T11:50:20.845Z,6.60
2018-12-30T11:52:49.786Z,6.50
2018-12-30T11:55:18.668Z,6.50
2018-12-30T11:57:47.560Z,6.50
2018-12-30T12:00:16.515Z,6.50
2018-12-30T12:02:45.404Z,6.60
2018-12-30T12:05:14.400Z,6.60
2018-12-30T12:07:43.327Z,6.60
2018-12-30T12:10:12.827Z,6.60
2018-12-30T12:12:48.657Z,6.50
2018-12-30T12:15:12.308Z,6.50
2018-12-30T12:17:41.176Z,6.50
2018-12-30T12:20:10.062Z,6.50
2018-12-30T12:22:38.962Z,6.50
2018-12-30T12:25:07.895Z,6.60
2018-12-30T12:27:36.808Z,6.70
2018-12-30T12:30:06.906Z,6.80
2018-12-30T12:32:35.796Z,6.80
2018-12-30T12:35:04.956Z,6.80
2018-12-30T12:37:33.825Z,6.80
2018-12-30T12:40:03.956Z,6.80
2018-12-30T12:42:32.916Z,6.80
2018-12-30T12:45:01.858Z,6.80
2018-12-30T12:47:30.820Z,6.80
2018-12-30T12:49:59.816Z,6.80
2018-12-30T12:52:28.752Z,6.70
2018-12-30T12:54:57.706Z,6.70
2018-12-30T12:57:26.637Z,6.70
2018-12-30T12:59:55.524Z,6.50
2018-12-30T13:02:24.542Z,6.30
2018-12-30T13:04:53.414Z,6.20
2018-12-30T13:07:22.353Z,6.10
2018-12-30T13:09:51.284Z,6.10
2018-12-30T13:12:20.127Z,6.10
2018-12-30T13:14:49.137Z,6.00
2018-12-30T13:17:18.542Z,6.00
2018-12-30T13:19:48.042Z,6.00
2018-12-30T13:22:16.984Z,6.00
2018-12-30T13:24:45.876Z,6.00
2018-12-30T13:27:14.796Z,6.00
2018-12-30T13:29:43.696Z,6.00
2018-12-30T13:32:12.596Z,6.00
2018-12-30T13:34:41.504Z,6.00
2018-12-30T13:37:10.994Z,6.00
2018-12-30T13:39:40.080Z,6.00
2018-12-30T13:42:09.074Z,6.10
2018-12-30T13:44:37.987Z,6.00
2018-12-30T13:47:06.955Z,6.00
2018-12-30T13:49:35.850Z,6.00
2018-12-30T13:52:04.955Z,6.00
2018-12-30T13:54:33.959Z,6.00
2018-12-30T13:57:02.845Z,6.00
2018-12-30T13:59:31.803Z,6.00
2018-12-30T14:02:03.012Z,6.00
2018-12-30T14:04:32.161Z,6.00
2018-12-30T14:07:01.046Z,5.90
2018-12-30T14:09:29.966Z,6.00
2018-12-30T14:11:58.912Z,5.90
2018-12-30T14:14:27.786Z,5.90
2018-12-30T14:16:56.738Z,5.90
2018-12-30T14:19:25.647Z,5.90
2018-12-30T14:21:54.715Z,5.80
2018-12-30T14:24:24.859Z,5.80
2018-12-30T14:26:59.833Z,5.80
2018-12-30T14:29:24.488Z,5.80
2018-12-30T14:31:53.403Z,5.80
2018-12-30T14:34:22.405Z,5.80
2018-12-30T14:36:52.729Z,5.80
2018-12-30T14:39:21.693Z,5.80
2018-12-30T14:41:51.553Z,5.80
2018-12-30T14:44:20.481Z,5.80
2018-12-30T14:46:49.377Z,5.80
2018-12-30T14:49:18.342Z,5.80
2018-12-30T14:51:47.312Z,5.80
2018-12-30T14:54:16.408Z,5.70
2018-12-30T14:56:45.383Z,5.70
2018-12-30T14:59:14.347Z,5.70
2018-12-30T15:01:43.345Z,5.70
2018-12-30T15:04:12.249Z,5.60
2018-12-30T15:06:41.163Z,5.60
2018-12-30T15:09:10.131Z,5.60
2018-12-30T15:11:39.031Z,5.60
2018-12-30T15:14:08.028Z,5.60
2018-12-30T15:16:37.202Z,5.60
2018-12-30T15:19:06.228Z,5.60
2018-12-30T15:21:35.131Z,5.60
2018-12-30T15:24:04.038Z,5.60
2018-12-30T15:26:32.990Z,5.60
2018-12-30T15:29:01.919Z,5.60
2018-12-30T15:31:30.872Z,5.60
2018-12-30T15:34:00.020Z,5.60
2018-12-30T15:36:29.032Z,5.60
2018-12-30T15:38:58.012Z,5.60
2018-12-30T15:41:27.033Z,5.60
2018-12-30T15:43:56.077Z,5.60
2018-12-30T15:46:25.139Z,5.60
2018-12-30T15:48:54.191Z,5.50
2018-12-30T15:51:23.263Z,5.60
2018-12-30T15:53:52.297Z,5.50
2018-12-30T15:56:21.319Z,5.50
2018-12-30T15:58:50.397Z,5.60
2018-12-30T16:01:19.359Z,5.50
2018-12-30T16:03:48.485Z,5.50
2018-12-30T16:06:18.568Z,5.50
2018-12-30T16:08:47.606Z,5.50
2018-12-30T16:11:16.519Z,5.50
2018-12-30T16:13:45.494Z,5.50
2018-12-30T16:16:15.480Z,5.50
2018-12-30T16:18:44.573Z,5.50
2018-12-30T16:21:13.575Z,5.50
2018-12-30T16:23:42.469Z,5.40
2018-12-30T16:26:11.473Z,5.40
2018-12-30T16:28:40.589Z,5.40
2018-12-30T16:31:09.550Z,5.40
2018-12-30T16:33:38.587Z,5.40
2018-12-30T16:36:07.689Z,5.40
2018-12-30T16:38:36.615Z,5.30
2018-12-30T16:41:05.760Z,5.40
2018-12-30T16:43:34.770Z,5.40
2018-12-30T16:46:04.001Z,5.30
2018-12-30T16:48:33.005Z,5.30
2018-12-30T16:51:02.082Z,5.30
2018-12-30T16:53:31.114Z,5.30
2018-12-30T16:56:00.052Z,5.30
2018-12-30T16:58:29.086Z,5.20
2018-12-30T17:00:58.049Z,5.30
2018-12-30T17:03:27.157Z,5.30
2018-12-30T17:05:56.277Z,5.30
2018-12-30T17:08:25.369Z,5.30
2018-12-30T17:10:54.329Z,5.30
2018-12-30T17:13:23.345Z,5.30
2018-12-30T17:15:52.250Z,5.30
2018-12-30T17:18:21.204Z,5.30
2018-12-30T17:20:50.198Z,5.20
2018-12-30T17:23:19.319Z,5.20
2018-12-30T17:25:48.381Z,5.30
2018-12-30T17:28:17.229Z,5.20
2018-12-30T17:30:46.270Z,5.30
2018-12-30T17:33:15.227Z,5.30
2018-12-30T17:35:46.185Z,5.30
2018-12-30T17:38:14.870Z,5.20
2018-12-30T17:40:43.859Z,5.30
2018-12-30T17:43:12.899Z,5.30
2018-12-30T17:45:41.852Z,5.30
2018-12-30T17:48:10.987Z,5.20
2018-12-30T17:50:40.088Z,5.30
2018-12-30T17:53:09.078Z,5.30
2018-12-30T17:55:38.236Z,5.30
2018-12-30T17:58:07.375Z,5.30
2018-12-30T18:00:36.505Z,5.30
2018-12-30T18:03:05.515Z,5.30
2018-12-30T18:05:34.560Z,5.30
2018-12-30T18:08:03.723Z,5.30
2018-12-30T18:10:32.869Z,5.30
2018-12-30T18:13:02.453Z,5.30
2018-12-30T18:15:31.824Z,5.30
2018-12-30T18:18:01.066Z,5.20
2018-12-30T18:20:30.166Z,5.20
2018-12-30T18:22:59.245Z,5.20
2018-12-30T18:25:28.286Z,5.20
2018-12-30T18:27:57.257Z,5.20
2018-12-30T18:30:26.507Z,5.20
2018-12-30T18:32:55.545Z,5.20
2018-12-30T18:35:24.506Z,5.20
2018-12-30T18:37:53.569Z,5.10
2018-12-30T18:40:22.874Z,5.10
2018-12-30T18:42:51.965Z,5.20
2018-12-30T18:45:21.025Z,5.20
2018-12-30T18:47:50.021Z,5.10
2018-12-30T18:50:20.618Z,5.10
2018-12-30T18:52:50.033Z,5.10
2018-12-30T18:55:19.223Z,5.10
2018-12-30T18:57:48.344Z,5.10
2018-12-30T19:00:17.553Z,5.10
2018-12-30T19:02:46.554Z,5.10
2018-12-30T19:05:15.556Z,5.10
2018-12-30T19:07:44.672Z,5.10
2018-12-30T19:10:13.779Z,5.10
2018-12-30T19:12:43.700Z,5.10
2018-12-30T19:15:12.930Z,5.10
2018-12-30T19:17:42.200Z,5.20
2018-12-30T19:20:11.254Z,5.10
2018-12-30T19:22:40.453Z,5.10
2018-12-30T19:25:09.565Z,5.10
2018-12-30T19:27:38.693Z,5.10
2018-12-30T19:30:11.532Z,5.10
2018-12-30T19:32:40.697Z,5.10
2018-12-30T19:35:09.912Z,5.10
2018-12-30T19:37:39.083Z,5.10
2018-12-30T19:40:10.473Z,5.10
2018-12-30T19:42:39.550Z,5.10
2018-12-30T19:45:08.849Z,5.10
2018-12-30T19:47:37.833Z,5.10
2018-12-30T19:50:07.766Z,5.10
2018-12-30T19:52:36.881Z,5.10
2018-12-30T19:55:06.395Z,5.10
2018-12-30T19:57:36.928Z,5.10
2018-12-30T20:00:08.299Z,5.10
2018-12-30T20:02:37.494Z,5.10
2018-12-30T20:05:06.806Z,5.10
2018-12-30T20:07:35.901Z,5.10
2018-12-30T20:10:06.550Z,5.00
2018-12-30T20:12:35.540Z,5.10
2018-12-30T20:15:05.733Z,5.10
2018-12-30T20:17:34.820Z,5.00
2018-12-30T20:20:04.797Z,5.00
2018-12-30T20:22:34.105Z,5.00
2018-12-30T20:25:03.296Z,5.10
2018-12-30T20:27:32.296Z,5.00
2018-12-30T20:30:01.714Z,5.00
2018-12-30T20:32:30.810Z,5.00
2018-12-30T20:34:59.905Z,5.00
2018-12-30T20:37:29.086Z,5.00
2018-12-30T20:39:58.262Z,4.90
2018-12-30T20:42:27.500Z,4.90
2018-12-30T20:44:58.258Z,4.90
2018-12-30T20:47:27.508Z,4.90
2018-12-30T20:49:56.721Z,5.00
2018-12-30T20:52:25.953Z,5.00
2018-12-30T20:54:55.062Z,5.00
2018-12-30T20:57:24.204Z,5.00
2018-12-30T20:59:53.289Z,5.00
2018-12-30T21:02:23.754Z,5.00
2018-12-30T21:04:53.251Z,5.00
2018-12-30T21:07:22.417Z,4.90
2018-12-30T21:09:51.674Z,4.90
2018-12-30T21:12:20.887Z,5.00
2018-12-30T21:14:50.115Z,4.90
2018-12-30T21:17:19.353Z,4.90
2018-12-30T21:19:48.559Z,4.90
2018-12-30T21:22:17.818Z,4.90
2018-12-30T21:24:48.736Z,4.90
2018-12-30T21:27:17.545Z,4.90
2018-12-30T21:29:46.621Z,4.90
2018-12-30T21:32:15.794Z,4.90
2018-12-30T21:34:45.133Z,4.90
2018-12-30T21:37:14.199Z,4.90
2018-12-30T21:39:43.401Z,4.80
2018-12-30T21:42:12.460Z,4.80
2018-12-30T21:44:41.738Z,4.80
2018-12-30T21:47:10.985Z,4.80
2018-12-30T21:49:40.084Z,4.80
2018-12-30T21:52:09.004Z,4.80
2018-12-30T21:54:38.881Z,4.80
2018-12-30T21:57:08.033Z,4.80
2018-12-30T21:59:37.158Z,4.80
2018-12-30T22:02:06.492Z,4.80
2018-12-30T22:04:36.826Z,4.80
2018-12-30T22:07:06.245Z,4.80
2018-12-30T22:09:35.423Z,4.80
2018-12-30T22:12:04.733Z,4.80
2018-12-30T22:14:33.785Z,4.70
2018-12-30T22:17:03.026Z,4.70
2018-12-30T22:19:32.027Z,4.80
2018-12-30T22:22:01.238Z,4.70
2018-12-30T22:24:30.412Z,4.80
2018-12-30T22:26:59.431Z,4.80
2018-12-30T22:29:28.550Z,4.80
2018-12-30T22:31:57.556Z,4.70
2018-12-30T22:34:26.687Z,4.70
2018-12-30T22:36:55.689Z,4.70
2018-12-30T22:39:24.801Z,4.80
2018-12-30T22:41:53.954Z,4.70
2018-12-30T22:44:22.957Z,4.80
2018-12-30T22:46:52.085Z,4.80
2018-12-30T22:49:21.189Z,4.70
2018-12-30T22:51:50.166Z,4.70
2018-12-30T22:54:19.109Z,4.80
2018-12-30T22:56:48.196Z,4.70
2018-12-30T22:59:17.086Z,4.70
2018-12-30T23:01:46.043Z,4.70
2018-12-30T23:04:14.933Z,4.70
2018-12-30T23:06:43.891Z,4.70
2018-12-30T23:09:12.894Z,4.70
2018-12-30T23:11:41.904Z,4.70
2018-12-30T23:14:10.857Z,4.70
2018-12-30T23:16:39.801Z,4.70
2018-12-30T23:19:08.676Z,4.70
2018-12-30T23:21:37.623Z,4.70
2018-12-30T23:24:07.859Z,4.70
2018-12-30T23:26:36.812Z,4.70
2018-12-30T23:29:05.751Z,4.70
2018-12-30T23:31:34.615Z,4.70
2018-12-30T23:34:03.579Z,4.70
2018-12-30T23:36:32.547Z,4.70
2018-12-30T23:39:01.500Z,4.70
2018-12-30T23:41:30.372Z,4.70
2018-12-30T23:43:59.274Z,4.70
2018-12-30T23:46:28.263Z,4.70
2018-12-30T23:48:57.153Z,4.70
2018-12-30T23:51:26.101Z,4.70
2018-12-30T23:53:54.983Z,4.70
2018-12-30T23:56:24.235Z,4.70
2018-12-30T23:58:53.341Z,4.70
